Bugul'Ma, Russia
Current Conditions -  °F | °C
As of 6:00 PM on Thursday 23 Oct 2014 (Local Time) from UWKE Reporting Station
Blowing Snow Blowing Snow  
Wind Chill:   Ceiling: 800
Heat Index: 14°   Visibility: 0.68mi
Dew Point: 10°   Wind: 11mph
Humidity: 86%   Direction: 240°WSW
Pressure: 29.77"   Gusts: 18mph
Location:  54.5°N, 52.87°E
Report Text: UWKE 231500Z 24005G08MPS 1100 R21/P1500 SHSN DRSN BKN008CBM10/M12 Q1008 NOSIG RMK QFE739/0985 21411070
Loading
Personal Weather Stations






























Interactive Weather Map
Tropical Storm Tracking
New forecast layout! Learn more

10-Day Weather Forecast

Advertisements
Track Severe Weather on mobile